Terminal Aerodrome Forecast
Issued by NWS Jackson, MS

Home | Current Version | Previous Version | Text Only | Print | Product List | Glossary On
Versions: 1 2 3 4 5 6 7 8 9 10 11 12 13
000
FTUS44 KJAN 291727
TAFHBG
TAF
KHBG 291727Z 2918/3018 17005KT P6SM BKN050
     FM300900 00000KT 4SM BR FEW120
     FM301400 15004KT P6SM SCT040=

USA.gov is the U.S. government's official web portal to all federal, state and local government web resources and services.